createdAt,value
2023-03-02T00:00:03.432Z,17.20
2023-03-02T00:01:03.432Z,18.20
2023-03-02T00:02:03.448Z,15.70
2023-03-02T00:03:03.464Z,18.00
2023-03-02T00:04:03.526Z,19.50
2023-03-02T00:05:03.392Z,18.10
2023-03-02T00:06:03.377Z,18.60
2023-03-02T00:07:03.384Z,18.80
2023-03-02T00:08:03.356Z,21.10
2023-03-02T00:09:03.353Z,21.10
2023-03-02T00:10:03.341Z,20.90
2023-03-02T00:11:03.334Z,19.40
2023-03-02T00:12:03.335Z,21.30
2023-03-02T00:13:03.322Z,21.10
2023-03-02T00:14:03.299Z,20.40
2023-03-02T00:15:03.307Z,20.90
2023-03-02T00:16:03.434Z,20.80
2023-03-02T00:17:03.338Z,21.70
2023-03-02T00:18:03.268Z,21.00
2023-03-02T00:19:03.277Z,21.60
2023-03-02T00:20:03.248Z,23.70
2023-03-02T00:21:03.248Z,22.10
2023-03-02T00:22:03.238Z,21.50
2023-03-02T00:23:03.220Z,20.40
2023-03-02T00:24:03.213Z,21.40
2023-03-02T00:25:03.224Z,22.10
2023-03-02T00:26:03.191Z,21.20
2023-03-02T00:27:03.208Z,22.50
2023-03-02T00:28:03.172Z,22.00
2023-03-02T00:29:03.161Z,20.80
2023-03-02T00:30:03.144Z,21.20
2023-03-02T00:31:03.236Z,21.10
2023-03-02T00:32:03.202Z,20.40
2023-03-02T00:33:03.124Z,21.20
2023-03-02T00:34:03.129Z,22.00
2023-03-02T00:35:03.105Z,21.90
2023-03-02T00:36:03.191Z,20.60
2023-03-02T00:37:03.128Z,19.50
2023-03-02T00:38:03.073Z,21.70
2023-03-02T00:39:03.071Z,22.60
2023-03-02T00:40:03.047Z,19.70
2023-03-02T00:41:03.045Z,22.70
2023-03-02T00:42:03.053Z,20.70
2023-03-02T00:43:03.033Z,21.90
2023-03-02T00:44:03.018Z,20.60
2023-03-02T00:45:03.017Z,18.50
2023-03-02T00:46:03.020Z,17.60
2023-03-02T00:47:03.084Z,18.40
2023-03-02T00:48:02.971Z,19.70
2023-03-02T00:49:02.974Z,19.50
2023-03-02T00:50:02.964Z,18.60
2023-03-02T00:51:02.953Z,17.50
2023-03-02T00:52:02.951Z,19.40
2023-03-02T00:53:02.929Z,21.00
2023-03-02T00:54:02.965Z,21.90
2023-03-02T00:55:02.909Z,20.60
2023-03-02T00:56:02.901Z,19.30
2023-03-02T00:57:02.930Z,20.00
2023-03-02T00:58:02.871Z,20.90
2023-03-02T00:59:02.874Z,19.50
2023-03-02T01:00:02.853Z,19.30
2023-03-02T01:01:08.859Z,19.30
2023-03-02T01:02:02.900Z,18.80
2023-03-02T01:03:02.950Z,19.00
2023-03-02T01:04:04.381Z,19.70
2023-03-02T01:05:02.815Z,18.50
2023-03-02T01:06:02.804Z,19.60
2023-03-02T01:07:02.814Z,18.20
2023-03-02T01:08:02.782Z,18.70
2023-03-02T01:09:02.775Z,18.30
2023-03-02T01:10:02.760Z,18.50
2023-03-02T01:11:02.753Z,17.20
2023-03-02T01:12:02.769Z,18.80
2023-03-02T01:13:02.740Z,18.80
2023-03-02T01:14:02.725Z,18.00
2023-03-02T01:15:02.728Z,17.40
2023-03-02T01:16:02.828Z,19.80
2023-03-02T01:17:02.752Z,18.60
2023-03-02T01:18:02.688Z,17.30
2023-03-02T01:19:02.687Z,19.00
2023-03-02T01:20:02.676Z,18.90
2023-03-02T01:21:02.667Z,19.30
2023-03-02T01:22:02.664Z,17.90
2023-03-02T01:23:02.642Z,16.70
2023-03-02T01:24:02.648Z,16.20
2023-03-02T01:25:02.620Z,17.20
2023-03-02T01:26:02.612Z,16.00
2023-03-02T01:27:02.607Z,17.00
2023-03-02T01:28:02.612Z,18.00
2023-03-02T01:29:02.607Z,17.80
2023-03-02T01:30:02.596Z,17.60
2023-03-02T01:31:02.578Z,18.00
2023-03-02T01:32:02.704Z,17.20
2023-03-02T01:33:02.567Z,19.10
2023-03-02T01:34:02.557Z,17.00
2023-03-02T01:35:02.530Z,17.80
2023-03-02T01:36:02.603Z,17.40
2023-03-02T01:37:02.526Z,18.10
2023-03-02T01:38:02.493Z,18.20
2023-03-02T01:39:02.534Z,18.30
2023-03-02T01:40:02.498Z,17.80
2023-03-02T01:41:02.467Z,18.70
2023-03-02T01:42:02.472Z,18.30
2023-03-02T01:43:02.441Z,19.30
2023-03-02T01:44:02.438Z,17.00
2023-03-02T01:45:02.444Z,17.90
2023-03-02T01:46:02.471Z,17.00
2023-03-02T01:47:02.428Z,16.70
2023-03-02T01:48:02.404Z,15.60
2023-03-02T01:49:02.386Z,16.00
2023-03-02T01:50:02.397Z,16.60
2023-03-02T01:51:02.373Z,18.00
2023-03-02T01:52:02.385Z,18.70
2023-03-02T01:53:04.071Z,17.60
2023-03-02T01:54:02.340Z,19.20
2023-03-02T01:55:02.371Z,20.30
2023-03-02T01:56:02.330Z,18.80
2023-03-02T01:57:02.331Z,18.60
2023-03-02T01:58:02.308Z,16.80
2023-03-02T01:59:02.289Z,18.90
2023-03-02T02:00:02.293Z,17.40
2023-03-02T02:01:02.340Z,18.70
2023-03-02T02:02:02.302Z,17.90
2023-03-02T02:03:02.252Z,18.60
2023-03-02T02:04:02.331Z,18.10
2023-03-02T02:05:02.234Z,18.00
2023-03-02T02:06:02.236Z,16.40
2023-03-02T02:07:02.226Z,17.30
2023-03-02T02:08:02.206Z,18.10
2023-03-02T02:09:02.197Z,18.10
2023-03-02T02:10:02.189Z,16.90
2023-03-02T02:11:02.172Z,17.90
2023-03-02T02:12:02.181Z,18.60
2023-03-02T02:13:02.150Z,18.20
2023-03-02T02:14:02.154Z,20.40
2023-03-02T02:15:02.137Z,20.30
2023-03-02T02:16:02.127Z,18.20
2023-03-02T02:17:02.229Z,18.10
2023-03-02T02:18:02.117Z,18.30
2023-03-02T02:19:02.111Z,17.00
2023-03-02T02:20:02.086Z,17.30
2023-03-02T02:21:02.076Z,18.90
2023-03-02T02:22:02.073Z,17.20
2023-03-02T02:23:02.068Z,16.50
2023-03-02T02:24:02.064Z,19.70
2023-03-02T02:25:02.042Z,20.10
2023-03-02T02:26:02.036Z,18.40
2023-03-02T02:27:02.014Z,19.20
2023-03-02T02:28:02.019Z,17.80
2023-03-02T02:29:01.997Z,19.10
2023-03-02T02:30:01.992Z,19.90
2023-03-02T02:31:01.975Z,20.60
2023-03-02T02:32:02.091Z,18.40
2023-03-02T02:33:01.989Z,20.30
2023-03-02T02:34:01.952Z,20.80
2023-03-02T02:35:01.934Z,18.80
2023-03-02T02:36:02.034Z,18.60
2023-03-02T02:37:01.915Z,19.30
2023-03-02T02:38:01.960Z,22.00
2023-03-02T02:39:01.900Z,19.50
2023-03-02T02:40:01.904Z,20.30
2023-03-02T02:41:01.885Z,19.30
2023-03-02T02:42:01.871Z,18.80
2023-03-02T02:43:01.876Z,19.70
2023-03-02T02:44:01.873Z,20.50
2023-03-02T02:45:01.843Z,19.90
2023-03-02T02:46:01.910Z,19.30
2023-03-02T02:47:01.831Z,20.90
2023-03-02T02:48:01.816Z,19.60
2023-03-02T02:49:01.827Z,20.60
2023-03-02T02:50:01.797Z,21.90
2023-03-02T02:51:01.783Z,21.30
2023-03-02T02:52:01.777Z,19.60
2023-03-02T02:53:01.773Z,19.70
2023-03-02T02:54:01.756Z,23.00
2023-03-02T02:55:01.744Z,20.00
2023-03-02T02:56:01.739Z,18.70
2023-03-02T02:57:01.735Z,20.80
2023-03-02T02:58:01.765Z,21.70
2023-03-02T02:59:01.708Z,21.90
2023-03-02T03:00:01.728Z,18.10
2023-03-02T03:01:01.714Z,19.70
2023-03-02T03:02:01.680Z,17.30
2023-03-02T03:03:01.675Z,18.70
2023-03-02T03:04:01.762Z,20.10
2023-03-02T03:05:01.648Z,18.10
2023-03-02T03:06:01.639Z,19.40
2023-03-02T03:07:01.632Z,20.80
2023-03-02T03:08:01.642Z,20.70
2023-03-02T03:09:01.611Z,18.50
2023-03-02T03:10:01.653Z,19.20
2023-03-02T03:11:01.589Z,19.00
2023-03-02T03:12:01.585Z,20.00
2023-03-02T03:13:01.604Z,18.00
2023-03-02T03:14:01.563Z,18.00
2023-03-02T03:15:01.578Z,18.90
2023-03-02T03:16:01.553Z,20.10
2023-03-02T03:17:01.562Z,17.70
2023-03-02T03:18:01.522Z,18.00
2023-03-02T03:19:01.511Z,19.00
2023-03-02T03:20:01.522Z,19.60
2023-03-02T03:21:01.496Z,19.90
2023-03-02T03:22:01.486Z,20.70
2023-03-02T03:23:01.473Z,20.30
2023-03-02T03:24:01.462Z,20.10
2023-03-02T03:25:01.470Z,19.30
2023-03-02T03:26:01.446Z,21.40
2023-03-02T03:27:01.429Z,22.30
2023-03-02T03:28:01.428Z,21.60
2023-03-02T03:29:01.408Z,21.90
2023-03-02T03:30:01.416Z,22.10
2023-03-02T03:31:01.420Z,22.30
2023-03-02T03:32:01.431Z,21.90
2023-03-02T03:33:01.372Z,19.50
2023-03-02T03:34:01.363Z,23.60
2023-03-02T03:35:01.369Z,19.90
2023-03-02T03:36:01.407Z,21.20
2023-03-02T03:37:01.329Z,23.90
2023-03-02T03:38:01.328Z,20.80
2023-03-02T03:39:01.310Z,19.90
2023-03-02T03:40:01.355Z,19.80
2023-03-02T03:41:01.299Z,18.70
2023-03-02T03:42:01.290Z,21.20
2023-03-02T03:43:01.320Z,20.70
2023-03-02T03:44:01.269Z,21.40
2023-03-02T03:45:01.323Z,22.10
2023-03-02T03:46:01.298Z,23.10
2023-03-02T03:47:01.247Z,22.40
2023-03-02T03:48:01.238Z,25.70
2023-03-02T03:49:01.232Z,23.50
2023-03-02T03:50:01.223Z,25.70
2023-03-02T03:51:01.194Z,26.70
2023-03-02T03:52:01.195Z,23.10
2023-03-02T03:53:03.641Z,26.40
2023-03-02T03:54:01.178Z,24.70
2023-03-02T03:55:01.183Z,23.60
2023-03-02T03:56:01.154Z,24.20
2023-03-02T03:57:01.139Z,22.40
2023-03-02T03:58:01.145Z,25.50
2023-03-02T03:59:01.114Z,22.70
2023-03-02T04:00:01.126Z,21.00
2023-03-02T04:01:01.103Z,23.70
2023-03-02T04:02:01.098Z,22.40
2023-03-02T04:03:01.174Z,25.10
2023-03-02T04:04:01.083Z,23.80
2023-03-02T04:05:01.060Z,26.30
2023-03-02T04:06:01.051Z,25.80
2023-03-02T04:07:01.040Z,24.00
2023-03-02T04:08:01.043Z,24.00
2023-03-02T04:09:01.022Z,24.40
2023-03-02T04:10:01.014Z,22.50
2023-03-02T04:11:01.002Z,25.40
2023-03-02T04:12:01.006Z,26.60
2023-03-02T04:13:01.003Z,25.60
2023-03-02T04:14:00.987Z,25.00
2023-03-02T04:15:00.959Z,26.20
2023-03-02T04:16:01.031Z,26.70
2023-03-02T04:17:00.940Z,24.40
2023-03-02T04:18:00.949Z,23.60
2023-03-02T04:19:00.918Z,22.30
2023-03-02T04:20:00.916Z,23.40
2023-03-02T04:21:00.920Z,23.80
2023-03-02T04:22:00.893Z,24.10
2023-03-02T04:23:00.895Z,24.00
2023-03-02T04:24:00.877Z,25.20
2023-03-02T04:25:00.865Z,26.50
2023-03-02T04:26:00.856Z,27.30
2023-03-02T04:27:00.849Z,26.70
2023-03-02T04:28:00.858Z,26.10
2023-03-02T04:29:00.828Z,27.30
2023-03-02T04:30:00.822Z,28.20
2023-03-02T04:31:00.892Z,27.10
2023-03-02T04:32:00.858Z,29.00
2023-03-02T04:33:00.839Z,26.30
2023-03-02T04:34:00.788Z,26.70
2023-03-02T04:35:00.789Z,30.80
2023-03-02T04:36:00.812Z,33.60
2023-03-02T04:37:00.766Z,30.00
2023-03-02T04:38:00.773Z,29.30
2023-03-02T04:39:00.740Z,27.50
2023-03-02T04:40:00.736Z,27.10
2023-03-02T04:41:00.733Z,26.80
2023-03-02T04:42:00.719Z,25.80
2023-03-02T04:43:00.715Z,26.10
2023-03-02T04:44:00.704Z,23.50
2023-03-02T04:45:00.686Z,25.60
2023-03-02T04:46:00.699Z,26.70
2023-03-02T04:47:00.709Z,24.70
2023-03-02T04:48:00.686Z,25.60
2023-03-02T04:49:00.649Z,23.50
2023-03-02T04:50:00.646Z,27.90
2023-03-02T04:51:00.634Z,23.50
2023-03-02T04:52:00.624Z,26.40
2023-03-02T04:53:00.639Z,26.20
2023-03-02T04:54:00.616Z,27.40
2023-03-02T04:55:00.589Z,29.90
2023-03-02T04:56:00.602Z,30.40
2023-03-02T04:57:00.572Z,25.40
2023-03-02T04:58:00.567Z,26.70
2023-03-02T04:59:00.566Z,29.10
2023-03-02T05:00:00.551Z,28.90
2023-03-02T05:01:00.550Z,29.20
2023-03-02T05:02:00.596Z,29.20
2023-03-02T05:03:00.535Z,30.40
2023-03-02T05:04:02.796Z,28.10
2023-03-02T05:05:00.616Z,31.30
2023-03-02T05:06:00.509Z,36.70
2023-03-02T05:07:00.475Z,31.20
2023-03-02T05:08:00.537Z,30.20
2023-03-02T05:09:00.455Z,30.50
2023-03-02T05:10:00.459Z,30.50
2023-03-02T05:11:00.443Z,30.20
2023-03-02T05:12:00.437Z,27.90
2023-03-02T05:13:00.438Z,30.70
2023-03-02T05:14:00.428Z,30.90
2023-03-02T05:15:00.397Z,29.90
2023-03-02T05:16:00.445Z,30.60
2023-03-02T05:17:00.390Z,31.20
2023-03-02T05:18:00.408Z,27.60
2023-03-02T05:19:00.362Z,28.40
2023-03-02T05:20:00.362Z,28.60
2023-03-02T05:21:00.347Z,29.90
2023-03-02T05:22:00.338Z,28.30
2023-03-02T05:23:00.340Z,30.20
2023-03-02T05:24:00.323Z,29.20
2023-03-02T05:25:00.303Z,30.80
2023-03-02T05:26:00.306Z,32.00
2023-03-02T05:27:00.232Z,33.70
2023-03-02T05:28:00.297Z,32.70
2023-03-02T05:29:00.267Z,31.90
2023-03-02T05:30:00.224Z,35.50
2023-03-02T05:31:00.230Z,34.50
2023-03-02T05:32:00.236Z,36.70
2023-03-02T05:33:00.186Z,36.70
2023-03-02T05:34:00.172Z,35.30
2023-03-02T05:35:00.170Z,37.60
2023-03-02T05:36:00.215Z,35.00
2023-03-02T05:37:00.154Z,34.10
2023-03-02T05:38:00.207Z,34.20
2023-03-02T05:39:00.171Z,33.30
2023-03-02T05:40:00.139Z,33.20
2023-03-02T05:41:00.114Z,35.20
2023-03-02T05:42:00.116Z,29.70
2023-03-02T05:43:00.108Z,31.30
2023-03-02T05:44:00.136Z,34.20
2023-03-02T05:45:00.090Z,32.80
2023-03-02T05:46:00.070Z,32.40
2023-03-02T05:47:00.221Z,33.90
2023-03-02T05:48:00.061Z,33.40
2023-03-02T05:49:00.044Z,31.80
2023-03-02T05:50:00.027Z,30.90
2023-03-02T05:51:00.011Z,30.40
2023-03-02T05:52:00.002Z,30.80
2023-03-02T05:52:59.997Z,30.70
2023-03-02T05:53:59.999Z,28.00
2023-03-02T05:54:59.977Z,28.40
2023-03-02T05:55:59.975Z,28.90
2023-03-02T05:56:59.981Z,34.70
2023-03-02T05:57:59.976Z,32.40
2023-03-02T05:58:59.969Z,33.00
2023-03-02T05:59:59.931Z,30.20
2023-03-02T06:00:59.921Z,28.50
2023-03-02T06:01:59.927Z,28.10
2023-03-02T06:02:59.958Z,28.70
2023-03-02T06:03:59.929Z,26.40
2023-03-02T06:04:59.884Z,28.90
2023-03-02T06:05:59.864Z,30.00
2023-03-02T06:06:59.871Z,25.80
2023-03-02T06:07:59.856Z,29.10
2023-03-02T06:08:59.882Z,26.30
2023-03-02T06:09:59.829Z,22.50
2023-03-02T06:10:59.822Z,24.50
2023-03-02T06:11:59.808Z,25.60
2023-03-02T06:12:59.806Z,27.00
2023-03-02T06:13:59.810Z,25.20
2023-03-02T06:14:59.792Z,25.60
2023-03-02T06:15:59.837Z,27.30
2023-03-02T06:16:59.846Z,24.40
2023-03-02T06:17:59.752Z,25.60
2023-03-02T06:18:59.774Z,24.40
2023-03-02T06:19:59.732Z,23.50
2023-03-02T06:20:59.735Z,24.10
2023-03-02T06:21:59.714Z,22.30
2023-03-02T06:22:59.711Z,23.70
2023-03-02T06:23:59.733Z,21.80
2023-03-02T06:24:59.691Z,22.70
2023-03-02T06:25:59.677Z,23.00
2023-03-02T06:26:59.681Z,25.20
2023-03-02T06:27:59.659Z,25.10
2023-03-02T06:28:59.677Z,26.10
2023-03-02T06:29:59.640Z,22.30
2023-03-02T06:30:59.662Z,25.40
2023-03-02T06:31:59.760Z,26.00
2023-03-02T06:32:59.616Z,26.50
2023-03-02T06:33:59.698Z,28.10
2023-03-02T06:34:59.700Z,24.80
2023-03-02T06:35:59.668Z,26.90
2023-03-02T06:36:59.588Z,23.50
2023-03-02T06:37:59.562Z,23.70
2023-03-02T06:38:59.572Z,25.00
2023-03-02T06:39:59.541Z,29.20
2023-03-02T06:40:59.535Z,25.10
2023-03-02T06:41:59.522Z,24.40
2023-03-02T06:42:59.517Z,26.90
2023-03-02T06:43:59.525Z,25.10
2023-03-02T06:44:59.505Z,21.80
2023-03-02T06:45:59.527Z,23.80
2023-03-02T06:46:59.478Z,25.50
2023-03-02T06:47:59.471Z,25.90
2023-03-02T06:48:59.474Z,25.60
2023-03-02T06:49:59.446Z,25.60
2023-03-02T06:50:59.442Z,24.00
2023-03-02T06:51:59.423Z,22.20
2023-03-02T06:52:59.422Z,22.20
2023-03-02T06:53:59.421Z,21.40
2023-03-02T06:54:59.405Z,23.90
2023-03-02T06:55:59.395Z,20.60
2023-03-02T06:56:59.382Z,19.00
2023-03-02T06:57:59.368Z,19.50
2023-03-02T06:58:59.376Z,19.70
2023-03-02T06:59:59.350Z,20.90
2023-03-02T07:00:59.388Z,20.00
2023-03-02T07:02:05.352Z,22.00
2023-03-02T07:02:59.324Z,20.30
2023-03-02T07:03:59.469Z,19.10
2023-03-02T07:04:59.310Z,20.10
2023-03-02T07:05:59.299Z,19.20
2023-03-02T07:06:59.289Z,18.70
2023-03-02T07:07:59.282Z,18.60
2023-03-02T07:08:59.291Z,18.00
2023-03-02T07:09:59.255Z,19.80
2023-03-02T07:10:59.241Z,19.20
2023-03-02T07:11:59.238Z,19.90
2023-03-02T07:12:59.226Z,17.90
2023-03-02T07:13:59.228Z,19.10
2023-03-02T07:14:59.212Z,20.20
2023-03-02T07:15:59.213Z,19.70
2023-03-02T07:16:59.273Z,17.80
2023-03-02T07:17:59.173Z,17.50
2023-03-02T07:18:59.176Z,19.20
2023-03-02T07:19:59.152Z,19.30
2023-03-02T07:20:59.142Z,18.10
2023-03-02T07:21:59.152Z,18.20
2023-03-02T07:22:59.125Z,19.50
2023-03-02T07:23:59.119Z,21.10
2023-03-02T07:24:59.115Z,18.90
2023-03-02T07:25:59.089Z,19.10
2023-03-02T07:26:59.096Z,17.20
2023-03-02T07:27:59.074Z,19.20
2023-03-02T07:28:59.061Z,17.30
2023-03-02T07:29:59.057Z,18.10
2023-03-02T07:30:59.085Z,17.40
2023-03-02T07:31:59.071Z,19.10
2023-03-02T07:32:59.019Z,18.20
2023-03-02T07:33:59.024Z,17.80
2023-03-02T07:34:59.002Z,20.80
2023-03-02T07:35:59.038Z,18.00
2023-03-02T07:36:59.008Z,18.00
2023-03-02T07:37:58.978Z,18.30
2023-03-02T07:38:58.969Z,16.90
2023-03-02T07:40:00.701Z,16.90
2023-03-02T07:40:58.954Z,16.60
2023-03-02T07:41:58.959Z,19.60
2023-03-02T07:42:58.923Z,17.10
2023-03-02T07:43:58.923Z,18.60
2023-03-02T07:44:58.903Z,17.60
2023-03-02T07:45:59.653Z,18.40
2023-03-02T07:46:58.897Z,19.20
2023-03-02T07:47:58.868Z,17.30
2023-03-02T07:48:58.900Z,16.40
2023-03-02T07:49:58.847Z,16.70
2023-03-02T07:50:58.845Z,16.70
2023-03-02T07:51:58.828Z,17.90
2023-03-02T07:53:00.016Z,15.60
2023-03-02T07:53:58.829Z,17.60
2023-03-02T07:54:58.797Z,17.10
2023-03-02T07:55:58.791Z,18.80
2023-03-02T07:56:58.782Z,17.90
2023-03-02T07:57:58.770Z,16.90
2023-03-02T07:58:58.785Z,16.90
2023-03-02T07:59:58.745Z,17.20
2023-03-02T08:00:58.745Z,16.70
2023-03-02T08:01:58.759Z,16.60
2023-03-02T08:02:58.839Z,16.40
2023-03-02T08:03:58.724Z,17.00
2023-03-02T08:04:58.701Z,18.60
2023-03-02T08:05:58.689Z,16.00
2023-03-02T08:06:58.687Z,16.50
2023-03-02T08:07:58.669Z,17.20
2023-03-02T08:08:58.679Z,17.30
2023-03-02T08:09:58.642Z,17.60
2023-03-02T08:10:58.641Z,16.80
2023-03-02T08:11:58.628Z,15.40
2023-03-02T08:12:58.617Z,16.80
2023-03-02T08:13:58.616Z,18.20
2023-03-02T08:14:58.600Z,17.00
2023-03-02T08:15:58.640Z,17.30
2023-03-02T08:16:58.587Z,17.20
2023-03-02T08:17:58.565Z,17.30
2023-03-02T08:18:59.925Z,16.60
2023-03-02T08:19:58.542Z,18.10
2023-03-02T08:20:58.538Z,17.00
2023-03-02T08:21:58.546Z,17.50
2023-03-02T08:22:58.517Z,17.30
2023-03-02T08:23:58.570Z,18.40
2023-03-02T08:24:58.499Z,16.00
2023-03-02T08:25:58.492Z,20.30
2023-03-02T08:26:58.487Z,16.70
2023-03-02T08:27:58.463Z,16.40
2023-03-02T08:28:58.456Z,17.40
2023-03-02T08:29:58.540Z,17.00
2023-03-02T08:30:58.445Z,16.90
2023-03-02T08:31:58.632Z,16.80
2023-03-02T08:32:58.413Z,16.70
2023-03-02T08:33:58.416Z,15.60
2023-03-02T08:34:58.394Z,16.40
2023-03-02T08:35:58.582Z,16.20
2023-03-02T08:36:58.374Z,17.70
2023-03-02T08:37:58.376Z,16.40
2023-03-02T08:38:58.369Z,16.00
2023-03-02T08:39:58.913Z,17.80
2023-03-02T08:40:58.337Z,17.70
2023-03-02T08:41:58.326Z,16.50
2023-03-02T08:42:58.318Z,17.30
2023-03-02T08:43:58.308Z,17.50
2023-03-02T08:44:58.290Z,16.20
2023-03-02T08:45:58.314Z,17.90
2023-03-02T08:46:58.295Z,17.30
2023-03-02T08:47:58.301Z,19.60
2023-03-02T08:48:58.294Z,20.90
2023-03-02T08:49:58.239Z,19.50
2023-03-02T08:50:58.235Z,18.60
2023-03-02T08:51:58.236Z,18.20
2023-03-02T08:52:58.209Z,17.20
2023-03-02T08:53:58.209Z,17.70
2023-03-02T08:54:58.224Z,17.00
2023-03-02T08:55:58.174Z,16.90
2023-03-02T08:56:58.187Z,17.60
2023-03-02T08:57:58.157Z,17.10
2023-03-02T08:58:58.143Z,16.60
2023-03-02T08:59:58.131Z,17.70
2023-03-02T09:00:58.143Z,17.50
2023-03-02T09:01:58.132Z,17.50
2023-03-02T09:02:58.109Z,17.60
2023-03-02T09:03:58.113Z,17.20
2023-03-02T09:04:58.100Z,18.60
2023-03-02T09:05:58.072Z,16.70
2023-03-02T09:06:58.068Z,16.00
2023-03-02T09:07:58.054Z,17.50
2023-03-02T09:08:58.074Z,17.60
2023-03-02T09:09:58.033Z,16.30
2023-03-02T09:10:58.024Z,17.70
2023-03-02T09:11:58.009Z,17.00
2023-03-02T09:12:58.001Z,16.80
2023-03-02T09:13:57.996Z,16.20
2023-03-02T09:14:58.010Z,18.00
2023-03-02T09:15:57.966Z,17.60
2023-03-02T09:16:58.027Z,15.80
2023-03-02T09:17:57.996Z,15.60
2023-03-02T09:18:57.957Z,17.10
2023-03-02T09:19:57.947Z,15.30
2023-03-02T09:20:57.932Z,16.60
2023-03-02T09:21:57.909Z,15.60
2023-03-02T09:22:57.901Z,16.10
2023-03-02T09:23:57.912Z,16.70
2023-03-02T09:24:57.895Z,16.20
2023-03-02T09:25:57.866Z,18.50
2023-03-02T09:26:57.869Z,15.70
2023-03-02T09:27:57.851Z,16.60
2023-03-02T09:28:57.856Z,16.70
2023-03-02T09:29:57.849Z,16.10
2023-03-02T09:30:57.883Z,16.10
2023-03-02T09:31:57.962Z,14.80
2023-03-02T09:32:57.948Z,16.80
2023-03-02T09:33:57.787Z,16.20
2023-03-02T09:34:57.800Z,15.10
2023-03-02T09:35:57.772Z,17.90
2023-03-02T09:36:57.768Z,16.80
2023-03-02T09:37:57.791Z,16.20
2023-03-02T09:38:57.746Z,16.50
2023-03-02T09:39:57.742Z,18.00
2023-03-02T09:40:57.720Z,16.60
2023-03-02T09:41:57.704Z,15.80
2023-03-02T09:42:57.697Z,16.30
2023-03-02T09:43:59.918Z,16.30
2023-03-02T09:44:57.690Z,16.90
2023-03-02T09:45:57.730Z,15.10
2023-03-02T09:46:57.655Z,15.40
2023-03-02T09:47:57.651Z,17.50
2023-03-02T09:48:57.630Z,15.80
2023-03-02T09:49:57.637Z,15.60
2023-03-02T09:50:57.643Z,14.80
2023-03-02T09:51:57.593Z,15.70
2023-03-02T09:52:57.704Z,17.30
2023-03-02T09:53:57.689Z,16.90
2023-03-02T09:54:57.591Z,17.10
2023-03-02T09:55:57.551Z,15.30
2023-03-02T09:56:57.556Z,16.30
2023-03-02T09:57:57.552Z,15.80
2023-03-02T09:58:57.528Z,17.60
2023-03-02T10:00:01.760Z,16.70
2023-03-02T10:00:57.521Z,15.00
2023-03-02T10:01:57.494Z,15.60
2023-03-02T10:03:05.093Z,15.30
2023-03-02T10:03:57.536Z,15.10
2023-03-02T10:04:57.485Z,16.10
2023-03-02T10:05:57.463Z,15.30
2023-03-02T10:06:57.463Z,16.30
2023-03-02T10:07:59.364Z,16.70
2023-03-02T10:08:57.431Z,15.10
2023-03-02T10:09:57.426Z,16.50
2023-03-02T10:10:57.406Z,16.30
2023-03-02T10:11:57.389Z,18.10
2023-03-02T10:12:57.385Z,15.70
2023-03-02T10:13:57.377Z,15.00
2023-03-02T10:14:57.369Z,15.20
2023-03-02T10:15:57.374Z,14.90
2023-03-02T10:16:57.461Z,14.50
2023-03-02T10:17:57.348Z,14.20
2023-03-02T10:18:57.309Z,14.80
2023-03-02T10:19:57.320Z,15.70
2023-03-02T10:20:57.291Z,14.50
2023-03-02T10:21:57.286Z,15.10
2023-03-02T10:22:57.271Z,14.70
2023-03-02T10:23:57.352Z,15.00
2023-03-02T10:24:57.257Z,14.50
2023-03-02T10:25:57.243Z,15.50
2023-03-02T10:26:57.240Z,14.20
2023-03-02T10:27:57.264Z,14.00
2023-03-02T10:28:57.202Z,15.50
2023-03-02T10:29:57.210Z,16.60
2023-03-02T10:30:57.274Z,15.00
2023-03-02T10:31:57.191Z,15.40
2023-03-02T10:32:57.167Z,15.30
2023-03-02T10:33:57.171Z,14.40
2023-03-02T10:34:57.162Z,15.10
2023-03-02T10:35:57.139Z,15.20
2023-03-02T10:36:57.163Z,15.00
2023-03-02T10:37:57.115Z,13.90
2023-03-02T10:38:57.099Z,15.70
2023-03-02T10:39:57.118Z,14.80
2023-03-02T10:40:57.089Z,15.20
2023-03-02T10:41:57.092Z,15.40
2023-03-02T10:42:57.060Z,15.20
2023-03-02T10:43:57.052Z,14.50
2023-03-02T10:44:57.055Z,15.00
2023-03-02T10:45:57.078Z,15.20
2023-03-02T10:46:57.054Z,16.50
2023-03-02T10:47:57.020Z,14.50
2023-03-02T10:48:57.029Z,14.80
2023-03-02T10:49:57.004Z,14.30
2023-03-02T10:50:56.973Z,14.60
2023-03-02T10:51:56.989Z,14.50
2023-03-02T10:53:00.616Z,16.00
2023-03-02T10:53:56.957Z,15.20
2023-03-02T10:54:56.979Z,15.40
2023-03-02T10:55:56.930Z,14.70
2023-03-02T10:56:56.916Z,15.00
2023-03-02T10:57:56.904Z,15.10
2023-03-02T10:58:56.895Z,16.60
2023-03-02T10:59:56.898Z,16.00
2023-03-02T11:00:56.870Z,14.90
2023-03-02T11:01:56.975Z,14.60
2023-03-02T11:02:56.850Z,15.10
2023-03-02T11:03:56.848Z,14.90
2023-03-02T11:04:57.784Z,16.40
2023-03-02T11:05:56.827Z,15.70
2023-03-02T11:06:56.817Z,16.10
2023-03-02T11:07:56.805Z,15.10
2023-03-02T11:08:56.793Z,16.60
2023-03-02T11:09:56.820Z,16.50
2023-03-02T11:10:59.911Z,17.30
2023-03-02T11:11:57.017Z,17.60
2023-03-02T11:12:56.763Z,16.10
2023-03-02T11:13:56.744Z,16.10
2023-03-02T11:14:56.743Z,16.20
2023-03-02T11:15:56.758Z,17.50
2023-03-02T11:16:56.708Z,16.00
2023-03-02T11:17:56.701Z,16.10
2023-03-02T11:18:56.683Z,15.60
2023-03-02T11:19:56.696Z,17.40
2023-03-02T11:20:56.664Z,15.10
2023-03-02T11:21:56.664Z,15.00
2023-03-02T11:22:56.643Z,17.00
2023-03-02T11:23:56.652Z,17.20
2023-03-02T11:24:56.645Z,15.50
2023-03-02T11:25:56.619Z,15.50
2023-03-02T11:26:56.610Z,15.80
2023-03-02T11:27:56.595Z,16.50
2023-03-02T11:28:56.581Z,15.50
2023-03-02T11:29:56.592Z,15.60
2023-03-02T11:30:56.576Z,15.40
2023-03-02T11:31:56.730Z,16.10
2023-03-02T11:32:56.549Z,15.50
2023-03-02T11:34:01.903Z,15.30
2023-03-02T11:34:56.562Z,16.50
2023-03-02T11:35:56.553Z,16.90
2023-03-02T11:36:56.499Z,16.20
2023-03-02T11:37:56.494Z,16.30
2023-03-02T11:38:56.476Z,16.80
2023-03-02T11:39:56.477Z,17.00
2023-03-02T11:40:56.558Z,16.60
2023-03-02T11:41:56.468Z,17.50
2023-03-02T11:42:56.440Z,18.10
2023-03-02T11:43:56.439Z,20.10
2023-03-02T11:44:56.421Z,19.20
2023-03-02T11:45:56.423Z,19.30
2023-03-02T11:46:56.449Z,19.30
2023-03-02T11:48:02.570Z,19.50
2023-03-02T11:48:56.399Z,17.80
2023-03-02T11:49:56.413Z,19.70
2023-03-02T11:50:56.409Z,19.00
2023-03-02T11:51:58.278Z,20.20
2023-03-02T11:52:56.339Z,20.00
2023-03-02T11:53:56.387Z,19.70
2023-03-02T11:54:56.330Z,20.00
2023-03-02T11:55:56.336Z,19.60
2023-03-02T11:56:56.354Z,20.60
2023-03-02T11:57:56.290Z,19.70
2023-03-02T11:58:56.283Z,21.00
2023-03-02T11:59:56.280Z,22.00
2023-03-02T12:00:56.296Z,20.80
2023-03-02T12:01:56.270Z,22.40
2023-03-02T12:02:56.233Z,22.40
2023-03-02T12:03:56.230Z,22.70
2023-03-02T12:04:56.211Z,22.20
2023-03-02T12:05:56.228Z,21.10
2023-03-02T12:06:56.206Z,19.30
2023-03-02T12:07:56.196Z,20.20
2023-03-02T12:08:56.210Z,20.10
2023-03-02T12:09:56.172Z,20.80
2023-03-02T12:10:56.192Z,20.40
2023-03-02T12:11:56.142Z,20.60
2023-03-02T12:12:56.136Z,20.50
2023-03-02T12:13:56.126Z,20.40
2023-03-02T12:14:56.115Z,20.60
2023-03-02T12:15:56.140Z,21.60
2023-03-02T12:16:56.148Z,19.30
2023-03-02T12:17:56.107Z,20.20
2023-03-02T12:18:56.076Z,20.10
2023-03-02T12:19:56.073Z,20.40
2023-03-02T12:20:56.080Z,20.60
2023-03-02T12:21:56.050Z,20.80
2023-03-02T12:22:56.028Z,21.00
2023-03-02T12:23:56.034Z,21.70
2023-03-02T12:24:56.015Z,22.60
2023-03-02T12:25:56.056Z,20.90
2023-03-02T12:26:56.008Z,21.20
2023-03-02T12:27:55.985Z,20.30
2023-03-02T12:28:57.747Z,20.50
2023-03-02T12:29:55.968Z,20.10
2023-03-02T12:30:55.953Z,20.20
2023-03-02T12:31:56.200Z,18.90
2023-03-02T12:32:55.926Z,20.70
2023-03-02T12:33:55.930Z,19.50
2023-03-02T12:34:55.909Z,22.00
2023-03-02T12:35:55.922Z,19.90
2023-03-02T12:36:55.978Z,19.90
2023-03-02T12:37:55.936Z,19.30
2023-03-02T12:38:55.867Z,19.90
2023-03-02T12:39:55.862Z,19.80
2023-03-02T12:40:55.860Z,21.00
2023-03-02T12:41:55.852Z,19.80
2023-03-02T12:42:55.925Z,19.40
2023-03-02T12:43:55.833Z,20.00
2023-03-02T12:44:55.899Z,19.80
2023-03-02T12:45:56.021Z,21.10
2023-03-02T12:46:55.802Z,20.20
2023-03-02T12:47:55.887Z,19.90
2023-03-02T12:48:55.941Z,19.10
2023-03-02T12:49:55.758Z,19.00
2023-03-02T12:50:55.747Z,19.20
2023-03-02T12:51:55.890Z,19.20